createdAt,value
2018-08-06T00:00:15.374Z,19.00
2018-08-06T00:02:43.397Z,18.90
2018-08-06T00:05:11.560Z,18.90
2018-08-06T00:07:39.609Z,18.90
2018-08-06T00:10:11.538Z,18.90
2018-08-06T00:12:39.861Z,18.90
2018-08-06T00:15:09.365Z,18.90
2018-08-06T00:17:37.550Z,18.90
2018-08-06T00:20:06.469Z,18.90
2018-08-06T00:22:34.517Z,18.90
2018-08-06T00:25:02.610Z,19.00
2018-08-06T00:27:30.954Z,18.90
2018-08-06T00:29:59.073Z,18.90
2018-08-06T00:32:27.109Z,18.90
2018-08-06T00:34:55.154Z,19.00
2018-08-06T00:37:23.308Z,18.90
2018-08-06T00:39:51.698Z,18.90
2018-08-06T00:42:19.856Z,18.70
2018-08-06T00:44:47.890Z,18.50
2018-08-06T00:47:15.929Z,18.60
2018-08-06T00:49:43.965Z,18.60
2018-08-06T00:52:12.527Z,18.60
2018-08-06T00:54:40.557Z,18.60
2018-08-06T00:57:08.606Z,18.50
2018-08-06T00:59:37.066Z,18.60
2018-08-06T01:02:05.317Z,18.50
2018-08-06T01:04:33.370Z,18.50
2018-08-06T01:07:01.925Z,18.40
2018-08-06T01:09:29.969Z,18.60
2018-08-06T01:11:58.535Z,18.60
2018-08-06T01:14:26.613Z,18.50
2018-08-06T01:16:54.646Z,18.30
2018-08-06T01:19:22.690Z,18.40
2018-08-06T01:21:52.137Z,18.40
2018-08-06T01:24:20.161Z,18.50
2018-08-06T01:26:48.202Z,18.50
2018-08-06T01:29:16.258Z,18.50
2018-08-06T01:31:44.302Z,18.50
2018-08-06T01:34:12.370Z,18.40
2018-08-06T01:36:40.430Z,18.40
2018-08-06T01:39:10.331Z,18.30
2018-08-06T01:41:38.385Z,18.40
2018-08-06T01:44:06.670Z,18.30
2018-08-06T01:46:34.714Z,18.20
2018-08-06T01:49:02.791Z,18.20
2018-08-06T01:51:30.813Z,18.20
2018-08-06T01:53:59.533Z,18.20
2018-08-06T01:56:28.163Z,18.10
2018-08-06T01:58:56.227Z,18.20
2018-08-06T02:01:24.294Z,18.30
2018-08-06T02:03:53.001Z,18.30
2018-08-06T02:06:21.037Z,18.30
2018-08-06T02:08:49.120Z,18.30
2018-08-06T02:11:17.166Z,18.30
2018-08-06T02:13:45.212Z,18.20
2018-08-06T02:16:13.257Z,18.20
2018-08-06T02:18:41.304Z,18.20
2018-08-06T02:21:09.381Z,18.20
2018-08-06T02:23:37.481Z,18.20
2018-08-06T02:26:06.686Z,18.30
2018-08-06T02:28:34.735Z,18.10
2018-08-06T02:31:03.447Z,18.00
2018-08-06T02:33:31.509Z,17.90
2018-08-06T02:35:59.574Z,18.00
2018-08-06T02:38:27.605Z,18.10
2018-08-06T02:40:55.662Z,18.00
2018-08-06T02:43:23.721Z,18.00
2018-08-06T02:45:51.794Z,17.80
2018-08-06T02:48:19.860Z,17.80
2018-08-06T02:50:48.114Z,17.80
2018-08-06T02:53:16.154Z,17.80
2018-08-06T02:55:44.189Z,17.90
2018-08-06T02:58:12.265Z,17.90
2018-08-06T03:00:40.526Z,18.00
2018-08-06T03:03:08.562Z,18.00
2018-08-06T03:05:36.595Z,18.00
2018-08-06T03:08:05.224Z,18.00
2018-08-06T03:10:33.265Z,18.00
2018-08-06T03:13:01.328Z,18.00
2018-08-06T03:15:29.363Z,17.90
2018-08-06T03:17:57.422Z,18.00
2018-08-06T03:20:25.473Z,18.00
2018-08-06T03:22:53.550Z,18.00
2018-08-06T03:25:21.606Z,17.90
2018-08-06T03:27:49.661Z,17.90
2018-08-06T03:30:17.898Z,17.90
2018-08-06T03:32:47.033Z,17.90
2018-08-06T03:35:15.137Z,18.00
2018-08-06T03:37:43.206Z,18.00
2018-08-06T03:40:11.639Z,17.90
2018-08-06T03:42:39.949Z,17.90
2018-08-06T03:45:09.312Z,17.90
2018-08-06T03:47:38.028Z,17.80
2018-08-06T03:50:07.409Z,17.80
2018-08-06T03:52:35.447Z,17.80
2018-08-06T03:55:03.823Z,17.80
2018-08-06T03:57:31.866Z,17.80
2018-08-06T03:59:59.914Z,17.80
2018-08-06T04:02:27.961Z,17.70
2018-08-06T04:04:56.017Z,17.80
2018-08-06T04:07:24.054Z,17.80
2018-08-06T04:09:52.393Z,17.80
2018-08-06T04:12:20.445Z,17.80
2018-08-06T04:14:48.501Z,17.80
2018-08-06T04:17:16.729Z,17.80
2018-08-06T04:19:44.847Z,17.90
2018-08-06T04:22:12.821Z,17.90
2018-08-06T04:24:40.881Z,17.80
2018-08-06T04:27:09.761Z,17.80
2018-08-06T04:29:38.202Z,17.80
2018-08-06T04:32:06.240Z,17.80
2018-08-06T04:34:34.298Z,17.80
2018-08-06T04:37:02.351Z,17.90
2018-08-06T04:39:30.602Z,17.90
2018-08-06T04:41:58.661Z,17.80
2018-08-06T04:44:26.711Z,17.80
2018-08-06T04:46:54.765Z,17.80
2018-08-06T04:49:22.845Z,18.00
2018-08-06T04:51:50.890Z,18.00
2018-08-06T04:54:18.950Z,18.00
2018-08-06T04:56:47.007Z,17.90
2018-08-06T04:59:15.113Z,17.90
2018-08-06T05:01:43.161Z,18.00
2018-08-06T05:04:11.233Z,18.10
2018-08-06T05:06:39.817Z,18.00
2018-08-06T05:09:09.474Z,18.10
2018-08-06T05:11:38.631Z,18.10
2018-08-06T05:14:06.677Z,18.20
2018-08-06T05:16:34.735Z,18.20
2018-08-06T05:19:02.936Z,18.30
2018-08-06T05:21:30.969Z,18.30
2018-08-06T05:26:28.720Z,18.40
2018-08-06T05:28:58.402Z,18.40
2018-08-06T05:31:27.458Z,18.50
2018-08-06T05:33:56.317Z,18.50
2018-08-06T05:36:24.480Z,18.50
2018-08-06T05:38:53.825Z,18.60
2018-08-06T05:41:23.081Z,18.60
2018-08-06T05:43:51.874Z,18.60
2018-08-06T05:46:19.967Z,18.70
2018-08-06T05:48:48.019Z,18.80
2018-08-06T05:51:16.076Z,18.80
2018-08-06T05:53:44.122Z,18.90
2018-08-06T05:56:12.178Z,19.00
2018-08-06T05:58:41.293Z,19.00
2018-08-06T06:01:09.543Z,19.10
2018-08-06T06:03:38.098Z,19.10
2018-08-06T06:06:07.458Z,19.30
2018-08-06T06:08:35.629Z,19.30
2018-08-06T06:11:04.227Z,19.20
2018-08-06T06:13:32.341Z,19.20
2018-08-06T06:16:00.481Z,19.40
2018-08-06T06:18:28.535Z,19.50
2018-08-06T06:20:56.871Z,19.60
2018-08-06T06:23:24.954Z,19.60
2018-08-06T06:25:53.065Z,19.50
2018-08-06T06:28:21.581Z,19.50
2018-08-06T06:30:49.670Z,19.50
2018-08-06T06:33:17.718Z,19.60
2018-08-06T06:35:45.804Z,19.70
2018-08-06T06:38:13.845Z,19.70
2018-08-06T06:40:41.906Z,19.70
2018-08-06T06:43:09.947Z,19.90
2018-08-06T06:45:38.012Z,20.00
2018-08-06T06:48:06.409Z,20.10
2018-08-06T06:50:34.505Z,20.40
2018-08-06T06:53:02.584Z,20.20
2018-08-06T06:55:30.623Z,20.30
2018-08-06T06:57:58.921Z,20.20
2018-08-06T07:00:26.969Z,20.30
2018-08-06T07:02:55.026Z,20.20
2018-08-06T07:05:23.079Z,20.20
2018-08-06T07:07:51.421Z,20.40
2018-08-06T07:10:19.513Z,20.40
2018-08-06T07:12:47.582Z,20.50
2018-08-06T07:15:16.749Z,20.40
2018-08-06T07:17:46.748Z,20.60
2018-08-06T07:20:16.253Z,20.70
2018-08-06T07:22:44.302Z,20.70
2018-08-06T07:25:12.715Z,20.70
2018-08-06T07:27:41.909Z,20.80
2018-08-06T07:30:14.005Z,20.80
2018-08-06T07:32:42.871Z,20.80
2018-08-06T07:35:12.022Z,21.00
2018-08-06T07:37:40.343Z,21.20
2018-08-06T07:40:10.284Z,21.30
2018-08-06T07:42:38.677Z,21.50
2018-08-06T07:45:09.811Z,21.60
2018-08-06T07:47:38.045Z,21.70
2018-08-06T07:50:07.552Z,21.70
2018-08-06T07:52:35.589Z,21.80
2018-08-06T07:55:03.693Z,21.80
2018-08-06T07:57:38.129Z,21.90
2018-08-06T08:00:11.561Z,21.90
2018-08-06T08:02:39.787Z,22.00
2018-08-06T08:05:09.751Z,22.10
2018-08-06T08:07:37.823Z,22.10
2018-08-06T08:10:08.853Z,21.90
2018-08-06T08:12:37.083Z,21.90
2018-08-06T08:15:08.052Z,22.00
2018-08-06T08:17:36.112Z,22.00
2018-08-06T08:20:06.940Z,22.10
2018-08-06T08:22:34.838Z,22.20
2018-08-06T08:25:02.888Z,22.30
2018-08-06T08:27:30.925Z,22.40
2018-08-06T08:29:58.972Z,22.30
2018-08-06T08:32:27.030Z,22.40
2018-08-06T08:34:55.071Z,22.60
2018-08-06T08:37:23.110Z,22.80
2018-08-06T08:39:51.362Z,23.00
2018-08-06T08:42:20.230Z,23.00
2018-08-06T08:44:48.280Z,22.90
2018-08-06T08:47:16.360Z,22.80
2018-08-06T08:49:44.426Z,22.80
2018-08-06T08:52:12.471Z,22.90
2018-08-06T08:54:40.517Z,23.00
2018-08-06T08:57:09.209Z,23.00
2018-08-06T08:59:37.245Z,22.60
2018-08-06T09:02:05.356Z,22.60
2018-08-06T09:04:33.390Z,22.60
2018-08-06T09:07:01.431Z,22.60
2018-08-06T09:09:29.461Z,23.00
2018-08-06T09:11:57.509Z,23.20
2018-08-06T09:14:25.562Z,22.90
2018-08-06T09:16:53.605Z,22.80
2018-08-06T09:19:21.653Z,22.90
2018-08-06T09:21:49.692Z,23.20
2018-08-06T09:24:17.786Z,23.40
2018-08-06T09:26:45.850Z,23.70
2018-08-06T09:29:13.886Z,23.90
2018-08-06T09:31:41.937Z,23.90
2018-08-06T09:34:09.979Z,23.80
2018-08-06T09:36:38.013Z,23.70
2018-08-06T09:39:09.901Z,23.20
2018-08-06T09:41:38.081Z,23.30
2018-08-06T09:44:06.426Z,23.50
2018-08-06T09:46:34.733Z,23.70
2018-08-06T09:49:02.829Z,24.20
2018-08-06T09:51:30.877Z,24.40
2018-08-06T09:53:58.927Z,24.50
2018-08-06T09:56:26.960Z,24.60
2018-08-06T09:58:56.035Z,24.30
2018-08-06T10:01:29.294Z,24.50
2018-08-06T10:03:57.481Z,24.70
2018-08-06T10:06:25.708Z,24.70
2018-08-06T10:08:53.584Z,24.80
2018-08-06T10:11:21.664Z,24.40
2018-08-06T10:13:49.909Z,24.20
2018-08-06T10:16:17.953Z,24.20
2018-08-06T10:18:46.051Z,24.40
2018-08-06T10:21:14.082Z,24.50
2018-08-06T10:23:42.141Z,24.40
2018-08-06T10:26:10.196Z,24.30
2018-08-06T10:28:38.246Z,24.50
2018-08-06T10:31:06.417Z,24.50
2018-08-06T10:33:34.477Z,24.60
2018-08-06T10:36:02.523Z,24.60
2018-08-06T10:38:30.578Z,24.90
2018-08-06T10:40:59.189Z,25.00
2018-08-06T10:45:55.381Z,25.30
2018-08-06T10:48:23.538Z,25.30
2018-08-06T10:50:51.529Z,25.60
2018-08-06T10:53:19.613Z,25.90
2018-08-06T10:55:47.657Z,25.90
2018-08-06T10:58:15.705Z,25.90
2018-08-06T11:00:43.812Z,25.80
2018-08-06T11:05:39.937Z,25.90
2018-08-06T11:08:08.213Z,26.00
2018-08-06T11:10:36.258Z,25.60
2018-08-06T11:13:04.324Z,25.60
2018-08-06T11:20:28.134Z,25.30
2018-08-06T11:22:56.132Z,25.70
2018-08-06T11:25:24.200Z,25.90
2018-08-06T11:27:52.237Z,25.70
2018-08-06T11:32:49.781Z,25.80
2018-08-06T11:35:18.038Z,26.10
2018-08-06T11:37:46.122Z,26.30
2018-08-06T11:40:15.117Z,26.40
2018-08-06T11:42:43.897Z,26.50
2018-08-06T11:45:14.084Z,26.20
2018-08-06T11:47:42.137Z,26.20
2018-08-06T11:50:10.773Z,26.40
2018-08-06T11:52:38.825Z,26.50
2018-08-06T11:55:07.634Z,26.40
2018-08-06T11:57:35.805Z,26.40
2018-08-06T12:00:07.305Z,26.50
2018-08-06T12:02:35.356Z,26.60
2018-08-06T12:05:03.405Z,26.90
2018-08-06T12:07:31.442Z,26.90
2018-08-06T12:09:59.478Z,26.80
2018-08-06T12:14:55.355Z,26.80
2018-08-06T12:17:23.390Z,26.90
2018-08-06T12:19:51.437Z,26.90
2018-08-06T12:22:19.541Z,27.10
2018-08-06T12:24:47.789Z,27.10
2018-08-06T12:27:15.846Z,27.00
2018-08-06T12:29:43.866Z,27.00
2018-08-06T12:32:11.923Z,27.00
2018-08-06T12:34:39.966Z,27.20
2018-08-06T12:37:07.997Z,27.40
2018-08-06T12:39:36.043Z,27.60
2018-08-06T12:42:04.425Z,27.50
2018-08-06T12:44:32.456Z,27.60
2018-08-06T12:47:00.493Z,27.70
2018-08-06T12:49:28.541Z,27.80
2018-08-06T12:51:56.577Z,27.60
2018-08-06T12:54:24.628Z,27.70
2018-08-06T12:56:52.656Z,27.60
2018-08-06T12:59:20.694Z,27.80
2018-08-06T13:01:48.720Z,27.40
2018-08-06T13:04:16.761Z,27.30
2018-08-06T13:06:44.797Z,27.40
2018-08-06T13:09:12.845Z,27.70
2018-08-06T13:11:40.889Z,27.90
2018-08-06T13:14:08.926Z,28.10
2018-08-06T13:16:36.968Z,28.30
2018-08-06T13:19:05.006Z,28.40
2018-08-06T13:21:33.074Z,28.40
2018-08-06T13:24:01.158Z,28.40
2018-08-06T13:26:29.201Z,28.40
2018-08-06T13:28:57.242Z,28.60
2018-08-06T13:31:25.386Z,28.60
2018-08-06T13:33:53.309Z,28.70
2018-08-06T13:36:21.361Z,28.70
2018-08-06T13:38:49.392Z,28.80
2018-08-06T13:41:18.057Z,28.90
2018-08-06T13:43:46.094Z,29.10
2018-08-06T13:46:14.149Z,29.10
2018-08-06T13:48:42.201Z,29.00
2018-08-06T13:51:10.532Z,29.00
2018-08-06T13:53:38.592Z,29.10
2018-08-06T13:56:06.653Z,29.20
2018-08-06T13:58:34.681Z,29.30
2018-08-06T14:01:02.816Z,29.40
2018-08-06T14:03:30.853Z,29.60
2018-08-06T14:05:58.889Z,29.70
2018-08-06T14:08:26.929Z,30.00
2018-08-06T14:10:54.975Z,30.10
2018-08-06T14:13:23.022Z,30.10
2018-08-06T14:15:51.065Z,30.10
2018-08-06T14:18:19.417Z,30.30
2018-08-06T14:20:47.464Z,30.40
2018-08-06T14:23:15.497Z,30.40
2018-08-06T14:25:43.551Z,30.40
2018-08-06T14:28:11.581Z,30.60
2018-08-06T14:30:39.666Z,30.80
2018-08-06T14:33:07.709Z,31.00
2018-08-06T14:35:35.761Z,31.10
2018-08-06T14:38:03.811Z,31.40
2018-08-06T14:40:31.849Z,30.90
2018-08-06T14:42:59.898Z,31.00
2018-08-06T14:45:27.948Z,30.30
2018-08-06T14:47:55.983Z,30.20
2018-08-06T14:50:30.753Z,30.70
2018-08-06T14:52:59.805Z,31.10
2018-08-06T14:55:27.865Z,31.20
2018-08-06T14:57:55.908Z,31.20
2018-08-06T15:00:23.949Z,30.60
2018-08-06T15:02:53.002Z,31.10
2018-08-06T15:05:21.049Z,31.50
2018-08-06T15:07:49.106Z,31.20
2018-08-06T15:10:17.169Z,31.40
2018-08-06T15:12:45.450Z,31.60
2018-08-06T15:15:14.520Z,32.00
2018-08-06T15:17:43.067Z,31.90
2018-08-06T15:20:13.187Z,31.70
2018-08-06T15:22:41.254Z,31.60
2018-08-06T15:25:13.998Z,31.60
2018-08-06T15:27:42.444Z,31.50
2018-08-06T15:30:10.789Z,31.50
2018-08-06T15:32:39.793Z,31.70
2018-08-06T15:35:08.713Z,31.90
2018-08-06T15:40:07.601Z,32.10
2018-08-06T15:42:35.642Z,32.30
2018-08-06T15:45:03.729Z,32.30
2018-08-06T15:47:31.754Z,32.20
2018-08-06T15:50:00.002Z,32.00
2018-08-06T15:52:28.042Z,31.90
2018-08-06T15:54:56.082Z,31.80
2018-08-06T15:57:24.127Z,31.10
2018-08-06T15:59:52.186Z,30.80
2018-08-06T16:02:20.746Z,31.00
2018-08-06T16:04:48.782Z,31.40
2018-08-06T16:07:16.913Z,31.40
2018-08-06T16:09:44.952Z,31.80
2018-08-06T16:12:12.989Z,32.40
2018-08-06T16:14:41.021Z,32.60
2018-08-06T16:17:09.056Z,33.30
2018-08-06T16:19:37.117Z,34.60
2018-08-06T16:22:05.209Z,35.60
2018-08-06T16:24:33.246Z,35.10
2018-08-06T16:27:01.353Z,33.90
2018-08-06T16:29:29.358Z,33.30
2018-08-06T16:31:57.417Z,33.50
2018-08-06T16:36:53.380Z,33.30
2018-08-06T16:39:21.418Z,33.10
2018-08-06T16:41:49.449Z,32.30
2018-08-06T16:44:17.485Z,32.00
2018-08-06T16:46:45.542Z,32.10
2018-08-06T16:51:41.418Z,32.80
2018-08-06T16:54:09.463Z,32.40
2018-08-06T16:56:37.509Z,32.00
2018-08-06T16:59:05.689Z,31.20
2018-08-06T17:01:34.247Z,30.70
2018-08-06T17:04:02.283Z,30.60
2018-08-06T17:06:30.390Z,30.50
2018-08-06T17:08:58.646Z,30.50
2018-08-06T17:11:26.738Z,30.50
2018-08-06T17:13:54.989Z,30.40
2018-08-06T17:16:23.046Z,30.30
2018-08-06T17:18:51.092Z,30.20
2018-08-06T17:21:19.117Z,30.10
2018-08-06T17:23:47.157Z,29.80
2018-08-06T17:26:15.212Z,29.80
2018-08-06T17:28:43.381Z,29.90
2018-08-06T17:31:11.422Z,29.80
2018-08-06T17:33:39.569Z,29.80
2018-08-06T17:36:07.664Z,29.80
2018-08-06T17:38:35.749Z,29.80
2018-08-06T17:41:03.796Z,29.70
2018-08-06T17:43:31.842Z,29.60
2018-08-06T17:45:59.906Z,29.50
2018-08-06T17:48:27.936Z,29.40
2018-08-06T17:50:55.978Z,29.30
2018-08-06T17:53:24.013Z,29.20
2018-08-06T17:55:52.057Z,29.00
2018-08-06T17:58:20.102Z,29.00
2018-08-06T18:00:48.169Z,28.80
2018-08-06T18:03:16.242Z,28.60
2018-08-06T18:05:44.276Z,28.50
2018-08-06T18:08:12.322Z,28.40
2018-08-06T18:10:40.358Z,28.30
2018-08-06T18:13:08.410Z,28.20
2018-08-06T18:15:37.133Z,28.10
2018-08-06T18:18:06.261Z,28.10
2018-08-06T18:20:34.838Z,27.90
2018-08-06T18:23:02.936Z,27.60
2018-08-06T18:25:30.977Z,27.30
2018-08-06T18:27:59.030Z,27.10
2018-08-06T18:30:27.099Z,26.90
2018-08-06T18:32:55.145Z,26.80
2018-08-06T18:35:23.189Z,26.60
2018-08-06T18:37:51.246Z,26.40
2018-08-06T18:40:20.445Z,26.30
2018-08-06T18:42:48.530Z,26.30
2018-08-06T18:45:17.931Z,26.20
2018-08-06T18:47:46.914Z,26.20
2018-08-06T18:50:15.899Z,26.10
2018-08-06T18:52:44.996Z,26.20
2018-08-06T18:55:13.854Z,26.20
2018-08-06T18:57:42.499Z,26.20
2018-08-06T19:00:15.047Z,26.10
2018-08-06T19:02:43.121Z,26.10
2018-08-06T19:05:11.390Z,26.10
2018-08-06T19:07:39.770Z,26.10
2018-08-06T19:10:08.410Z,26.10
2018-08-06T19:12:41.746Z,26.10
2018-08-06T19:15:10.026Z,25.90
2018-08-06T19:17:42.326Z,25.90
2018-08-06T19:20:10.385Z,25.90
2018-08-06T19:22:38.556Z,25.80
2018-08-06T19:25:12.184Z,25.80
2018-08-06T19:27:41.234Z,25.80
2018-08-06T19:30:09.457Z,25.80
2018-08-06T19:32:37.492Z,25.80
2018-08-06T19:35:05.719Z,25.70
2018-08-06T19:37:39.133Z,25.70
2018-08-06T19:40:08.313Z,25.70
2018-08-06T19:42:41.817Z,25.60
2018-08-06T19:45:10.033Z,25.50
2018-08-06T19:47:38.074Z,25.50
2018-08-06T19:50:13.394Z,25.40
2018-08-06T19:52:41.601Z,25.40
2018-08-06T19:55:14.977Z,25.30
2018-08-06T19:57:43.377Z,25.30
2018-08-06T20:00:12.777Z,25.30
2018-08-06T20:02:41.153Z,25.30
2018-08-06T20:05:09.334Z,25.30
2018-08-06T20:07:37.624Z,25.30
2018-08-06T20:10:06.637Z,25.30
2018-08-06T20:12:34.685Z,25.30
2018-08-06T20:15:02.749Z,25.30
2018-08-06T20:17:31.526Z,25.30
2018-08-06T20:19:59.593Z,25.30
2018-08-06T20:22:27.627Z,25.20
2018-08-06T20:24:55.694Z,25.20
2018-08-06T20:27:23.737Z,25.20
2018-08-06T20:29:51.781Z,25.20
2018-08-06T20:32:19.821Z,25.10
2018-08-06T20:34:47.861Z,25.00
2018-08-06T20:37:16.090Z,24.80
2018-08-06T20:39:44.117Z,24.70
2018-08-06T20:42:12.164Z,24.70
2018-08-06T20:47:08.929Z,24.60
2018-08-06T20:49:37.100Z,24.40
2018-08-06T20:54:33.076Z,24.30
2018-08-06T20:57:01.164Z,24.40
2018-08-06T20:59:29.231Z,24.40
2018-08-06T21:01:57.278Z,24.30
2018-08-06T21:04:25.490Z,24.20
2018-08-06T21:06:53.758Z,24.20
2018-08-06T21:09:21.818Z,24.20
2018-08-06T21:11:49.869Z,24.20
2018-08-06T21:14:17.918Z,24.10
2018-08-06T21:16:45.969Z,24.00
2018-08-06T21:19:14.003Z,24.00
2018-08-06T21:21:42.078Z,23.90
2018-08-06T21:24:10.126Z,23.80
2018-08-06T21:26:38.330Z,23.80
2018-08-06T21:29:06.517Z,23.70
2018-08-06T21:31:34.574Z,23.60
2018-08-06T21:34:02.621Z,23.60
2018-08-06T21:36:30.658Z,23.50
2018-08-06T21:41:26.849Z,23.60
2018-08-06T21:43:54.915Z,23.50
2018-08-06T21:46:22.965Z,23.50
2018-08-06T21:48:51.004Z,23.50
2018-08-06T21:53:46.874Z,23.50
2018-08-06T21:56:14.927Z,23.40
2018-08-06T21:58:42.974Z,23.30
2018-08-06T22:01:11.062Z,23.20
2018-08-06T22:03:39.102Z,23.20
2018-08-06T22:06:07.409Z,23.20
2018-08-06T22:08:35.454Z,22.30
2018-08-06T22:11:03.517Z,23.20
2018-08-06T22:13:31.565Z,23.20
2018-08-06T22:15:59.597Z,23.10
2018-08-06T22:18:27.629Z,23.10
2018-08-06T22:20:55.670Z,23.00
2018-08-06T22:23:23.727Z,23.00
2018-08-06T22:25:51.973Z,22.90
2018-08-06T22:28:20.005Z,23.00
2018-08-06T22:30:48.050Z,22.90
2018-08-06T22:33:16.074Z,22.90
2018-08-06T22:35:44.118Z,22.90
2018-08-06T22:38:12.157Z,22.90
2018-08-06T22:40:40.238Z,22.80
2018-08-06T22:43:08.289Z,22.80
2018-08-06T22:45:36.334Z,22.80
2018-08-06T22:48:04.609Z,22.80
2018-08-06T22:50:32.653Z,22.80
2018-08-06T22:53:00.698Z,22.80
2018-08-06T22:55:29.113Z,22.70
2018-08-06T22:57:57.149Z,22.70
2018-08-06T23:00:25.185Z,22.70
2018-08-06T23:02:53.237Z,22.60
2018-08-06T23:07:49.117Z,22.50
2018-08-06T23:10:17.730Z,22.60
2018-08-06T23:12:45.831Z,22.50
2018-08-06T23:17:43.074Z,22.40
2018-08-06T23:20:11.141Z,22.30
2018-08-06T23:22:39.632Z,22.30
2018-08-06T23:25:08.119Z,22.30
2018-08-06T23:27:36.994Z,22.30
2018-08-06T23:30:07.642Z,22.30
2018-08-06T23:32:35.689Z,22.30
2018-08-06T23:35:04.397Z,22.30
2018-08-06T23:37:32.441Z,22.20
2018-08-06T23:40:00.480Z,22.20
2018-08-06T23:42:28.635Z,22.20
2018-08-06T23:44:56.625Z,22.10
2018-08-06T23:47:24.891Z,22.00
2018-08-06T23:49:52.913Z,22.00
2018-08-06T23:52:21.566Z,22.00
2018-08-06T23:54:49.598Z,22.00
2018-08-06T23:57:17.652Z,21.90
2018-08-06T23:59:45.677Z,21.90
